aviador You're here:

KHFF Decoded Metar

HOFFMAN/MACKALL in NC, USA
Report Time2018-04-24 12:19:00
UTC Time2018-04-24 12:39:42
Flight Rules ifr IFR
Wind110° at 10 kt
W.Decomp.*RWY 11: 9.9 kt HW 1.0 kt RCW
RWY 16: 7.2 kt HW 6.9 kt LCW
RWY 04: 2.4 kt HW 9.7 kt RCW
W.Rank110° ranks 35
Current wind is above 110° avg. (4.2)
Visibility9999 m
Phenomena:N/A
Clouds:Broken 008 Hf
Ceiling800 ft
Temp16°C (ISA +2)
Dew Point16°C (100% RH)
AAT14.4°C
QNH1014 hPa
Density Alt794 ft
Elevation377 ft
Report Wrong Elevation
Raw Report
KHFF 241219Z AUTO 11010KT 10SM BKN008 16/16 A2993 RMK AO2 SLP150
$=

Extra information for KHFF:More info

Metar Taf Metar & Taf Last 4 Metars F.Rules Stats Wind Profile Meteogram Temp Stats Airport Information Weather charts Add Link Nearby VenuesMetar ALERT Operation Metar Decoded Social comments

AIRNAV info for KHFF